createdAt,value
2019-02-28T00:02:30.035Z,9.97
2019-02-28T00:07:34.285Z,9.10
2019-02-28T00:12:38.517Z,10.45
2019-02-28T00:17:43.621Z,9.63
2019-02-28T00:22:49.295Z,8.95
2019-02-28T00:27:53.631Z,8.75
2019-02-28T00:32:59.388Z,10.13
2019-02-28T00:38:03.778Z,9.78
2019-02-28T00:43:08.042Z,9.90
2019-02-28T00:48:12.284Z,10.20
2019-02-28T00:53:16.486Z,10.35
2019-02-28T00:58:20.758Z,10.30
2019-02-28T01:03:27.293Z,11.50
2019-02-28T01:08:30.824Z,10.73
2019-02-28T01:13:35.007Z,13.50
2019-02-28T01:18:39.264Z,14.75
2019-02-28T01:23:43.457Z,15.70
2019-02-28T01:28:47.667Z,16.80
2019-02-28T01:33:51.864Z,18.10
2019-02-28T01:38:58.070Z,18.55
2019-02-28T01:44:02.821Z,19.37
2019-02-28T01:49:07.203Z,19.90
2019-02-28T01:54:11.439Z,21.90
2019-02-28T01:59:15.637Z,23.02
2019-02-28T02:04:19.901Z,24.50
2019-02-28T02:09:24.369Z,26.87
2019-02-28T02:14:28.560Z,28.25
2019-02-28T02:19:32.820Z,28.15
2019-02-28T02:24:37.004Z,29.18
2019-02-28T02:29:41.211Z,28.02
2019-02-28T02:34:45.483Z,30.10
2019-02-28T02:39:50.458Z,31.27
2019-02-28T02:44:57.041Z,29.82
2019-02-28T02:50:01.283Z,30.52
2019-02-28T02:55:06.141Z,30.82
2019-02-28T03:00:14.908Z,30.75
2019-02-28T03:05:19.292Z,30.17
2019-02-28T03:10:23.468Z,30.75
2019-02-28T03:15:27.643Z,30.45
2019-02-28T03:20:31.863Z,31.80
2019-02-28T03:25:36.067Z,32.48
2019-02-28T03:30:40.343Z,32.93
2019-02-28T03:35:44.533Z,32.08
2019-02-28T03:40:48.809Z,31.87
2019-02-28T03:45:53.009Z,32.98
2019-02-28T03:50:57.236Z,35.23
2019-02-28T03:56:01.513Z,34.45
2019-02-28T04:01:09.471Z,33.23
2019-02-28T04:06:11.631Z,31.83
2019-02-28T04:11:15.831Z,30.70
2019-02-28T04:16:20.010Z,30.77
2019-02-28T04:21:24.331Z,31.70
2019-02-28T04:26:29.818Z,31.57
2019-02-28T04:31:34.528Z,31.80
2019-02-28T04:36:38.709Z,32.73
2019-02-28T04:41:42.905Z,32.43
2019-02-28T04:46:47.083Z,33.73
2019-02-28T04:51:51.298Z,32.98
2019-02-28T04:56:55.518Z,32.37
2019-02-28T05:01:59.690Z,32.73
2019-02-28T05:07:03.861Z,33.27
2019-02-28T05:12:08.028Z,33.33
2019-02-28T05:17:12.258Z,34.53
2019-02-28T05:22:16.459Z,34.63
2019-02-28T05:27:20.727Z,35.17
2019-02-28T05:32:24.917Z,35.20
2019-02-28T05:37:29.126Z,34.40
2019-02-28T05:42:33.330Z,34.60
2019-02-28T05:47:46.126Z,37.27
2019-02-28T05:52:43.697Z,36.13
2019-02-28T05:57:47.867Z,38.50
2019-02-28T06:02:54.470Z,38.60
2019-02-28T06:08:00.499Z,35.87
2019-02-28T06:13:03.959Z,37.33
2019-02-28T06:18:08.160Z,38.40
2019-02-28T06:23:12.399Z,38.25
2019-02-28T06:28:16.603Z,37.10
2019-02-28T06:33:21.293Z,38.77
2019-02-28T06:38:25.693Z,38.40
2019-02-28T06:43:29.881Z,37.83
2019-02-28T06:48:34.158Z,37.20
2019-02-28T06:53:40.142Z,37.40
2019-02-28T06:58:44.409Z,38.08
2019-02-28T07:03:53.516Z,37.93
2019-02-28T07:08:54.528Z,37.35
2019-02-28T07:13:58.869Z,38.08
2019-02-28T07:19:03.071Z,38.42
2019-02-28T07:24:07.287Z,38.92
2019-02-28T07:29:12.128Z,37.17
2019-02-28T07:34:19.365Z,38.48
2019-02-28T07:39:21.431Z,39.42
2019-02-28T07:44:25.389Z,38.45
2019-02-28T07:49:29.152Z,38.80
2019-02-28T07:54:33.350Z,41.30
2019-02-28T07:59:41.210Z,39.18
2019-02-28T08:04:43.756Z,38.33
2019-02-28T08:09:48.132Z,38.88
2019-02-28T08:14:52.322Z,40.33
2019-02-28T08:19:58.734Z,39.20
2019-02-28T08:25:02.488Z,39.25
2019-02-28T08:30:10.356Z,40.17
2019-02-28T08:35:15.130Z,40.98
2019-02-28T08:40:20.135Z,40.52
2019-02-28T08:45:24.610Z,42.05
2019-02-28T08:50:28.913Z,41.00
2019-02-28T08:55:32.556Z,42.93
2019-02-28T09:00:37.717Z,43.20
2019-02-28T09:05:42.235Z,42.62
2019-02-28T09:10:47.010Z,43.10
2019-02-28T09:15:52.010Z,42.62
2019-02-28T09:20:56.218Z,42.83
2019-02-28T09:26:00.444Z,40.73
2019-02-28T09:31:04.913Z,42.03
2019-02-28T09:36:10.204Z,42.35
2019-02-28T09:41:14.421Z,42.62
2019-02-28T09:46:18.840Z,41.60
2019-02-28T09:51:23.159Z,41.92
2019-02-28T09:56:26.773Z,39.35
2019-02-28T10:01:30.953Z,39.60
2019-02-28T10:06:35.208Z,39.08
2019-02-28T10:11:40.559Z,39.13
2019-02-28T10:16:44.420Z,37.45
2019-02-28T10:21:52.125Z,37.67
2019-02-28T10:26:54.669Z,39.00
2019-02-28T10:31:58.877Z,38.78
2019-02-28T10:37:04.366Z,38.45
2019-02-28T10:42:08.615Z,37.75
2019-02-28T10:47:12.875Z,37.40
2019-02-28T10:52:23.498Z,38.67
2019-02-28T10:57:25.695Z,37.33
2019-02-28T11:02:29.889Z,38.33
2019-02-28T11:07:37.795Z,39.15
2019-02-28T11:12:40.607Z,36.42
2019-02-28T11:17:44.795Z,38.42
2019-02-28T11:22:49.199Z,38.15
2019-02-28T11:27:54.546Z,38.58
2019-02-28T11:33:03.095Z,37.65
2019-02-28T11:38:05.120Z,38.08
2019-02-28T11:43:09.474Z,36.93
2019-02-28T11:48:18.907Z,37.75
2019-02-28T11:53:20.039Z,38.30
2019-02-28T11:58:24.228Z,37.70
2019-02-28T12:03:28.521Z,37.67
2019-02-28T12:08:32.783Z,39.27
2019-02-28T12:13:36.986Z,38.35
2019-02-28T12:18:41.160Z,38.33
2019-02-28T12:23:45.483Z,40.12
2019-02-28T12:28:49.696Z,38.73
2019-02-28T12:33:56.818Z,36.38
2019-02-28T12:39:02.255Z,38.35
2019-02-28T12:44:05.858Z,37.73
2019-02-28T12:49:10.159Z,40.17
2019-02-28T12:54:14.375Z,39.35
2019-02-28T12:59:18.654Z,39.65
2019-02-28T13:04:22.844Z,39.33
2019-02-28T13:09:27.056Z,40.88
2019-02-28T13:14:31.351Z,39.35
2019-02-28T13:19:35.651Z,38.80
2019-02-28T13:24:42.479Z,37.48
2019-02-28T13:29:45.848Z,38.48
2019-02-28T13:34:50.135Z,39.23
2019-02-28T13:39:54.436Z,39.08
2019-02-28T13:44:58.805Z,38.95
2019-02-28T13:50:05.387Z,38.45
2019-02-28T13:55:10.476Z,40.58
2019-02-28T14:00:32.985Z,41.50
2019-02-28T14:05:40.803Z,42.25
2019-02-28T14:10:43.787Z,41.35
2019-02-28T14:15:51.603Z,41.20
2019-02-28T14:20:53.914Z,39.65
2019-02-28T14:25:58.110Z,38.75
2019-02-28T14:31:02.386Z,37.90
2019-02-28T14:36:10.249Z,36.85
2019-02-28T14:41:12.580Z,35.55
2019-02-28T14:46:18.264Z,35.13
2019-02-28T14:51:25.510Z,34.88
2019-02-28T14:56:28.663Z,34.90
2019-02-28T15:01:35.804Z,37.55
2019-02-28T15:06:40.045Z,37.23
2019-02-28T15:11:46.858Z,36.85
2019-02-28T15:16:50.376Z,36.68
2019-02-28T15:21:55.580Z,38.63
2019-02-28T15:26:59.232Z,37.53
2019-02-28T15:32:02.987Z,39.45
2019-02-28T15:37:06.707Z,38.63
2019-02-28T15:42:10.374Z,38.35
2019-02-28T15:47:14.145Z,37.63
2019-02-28T15:52:17.803Z,34.40
2019-02-28T15:57:21.549Z,35.68
2019-02-28T16:02:25.202Z,36.15
2019-02-28T16:07:32.207Z,34.75
2019-02-28T16:12:34.452Z,37.20
2019-02-28T16:17:38.211Z,37.20
2019-02-28T16:22:42.050Z,38.05
2019-02-28T16:27:45.737Z,34.80
2019-02-28T16:32:50.155Z,36.17
2019-02-28T16:37:53.953Z,36.38
2019-02-28T16:42:57.705Z,36.38
2019-02-28T16:48:04.493Z,37.00
2019-02-28T16:53:08.184Z,37.00
2019-02-28T16:58:12.459Z,37.03
2019-02-28T17:03:16.667Z,36.80
2019-02-28T17:08:20.947Z,35.90
2019-02-28T17:13:35.512Z,36.83
2019-02-28T17:18:39.967Z,37.00
2019-02-28T17:23:45.573Z,39.48
2019-02-28T17:28:55.183Z,38.05
2019-02-28T17:33:59.600Z,37.80
2019-02-28T17:39:04.456Z,38.00
2019-02-28T17:44:44.120Z,39.90
2019-02-28T17:50:34.125Z,40.05
2019-02-28T17:55:50.805Z,38.38
2019-02-28T18:01:34.551Z,39.75
2019-02-28T18:07:14.018Z,39.25
2019-02-28T18:12:59.498Z,38.92
2019-02-28T18:19:09.213Z,39.80
2019-02-28T18:24:45.369Z,38.33
2019-02-28T18:30:42.674Z,39.00
2019-02-28T18:35:46.397Z,38.90
2019-02-28T18:40:50.612Z,39.15
2019-02-28T18:45:56.821Z,39.80
2019-02-28T18:51:00.779Z,38.10
2019-02-28T18:56:05.047Z,40.03
2019-02-28T19:01:09.262Z,39.45
2019-02-28T19:06:13.491Z,43.55
2019-02-28T19:11:17.741Z,43.50
2019-02-28T19:16:21.949Z,42.60
2019-02-28T19:21:26.281Z,40.50
2019-02-28T19:26:30.512Z,41.90
2019-02-28T19:31:34.839Z,43.30
2019-02-28T19:36:39.153Z,43.68
2019-02-28T19:41:43.447Z,42.27
2019-02-28T19:46:47.674Z,42.90
2019-02-28T19:51:51.963Z,44.33
2019-02-28T19:56:56.168Z,51.42
2019-02-28T20:02:00.442Z,60.15
2019-02-28T20:07:04.665Z,64.37
2019-02-28T20:12:08.973Z,72.20
2019-02-28T20:17:13.174Z,79.97
2019-02-28T20:22:17.495Z,81.82
2019-02-28T20:27:25.244Z,84.67
2019-02-28T20:32:29.209Z,80.45
2019-02-28T20:37:33.485Z,80.97
2019-02-28T20:42:37.815Z,82.10
2019-02-28T20:47:42.088Z,79.85
2019-02-28T20:52:46.452Z,80.30
2019-02-28T20:57:50.682Z,79.50
2019-02-28T21:02:55.043Z,77.55
2019-02-28T21:07:59.325Z,78.70
2019-02-28T21:13:03.611Z,76.07
2019-02-28T21:18:07.854Z,73.35
2019-02-28T21:23:12.163Z,71.55
2019-02-28T21:28:16.485Z,62.30
2019-02-28T21:33:20.719Z,60.92
2019-02-28T21:38:24.925Z,59.75
2019-02-28T21:43:29.252Z,55.33
2019-02-28T21:48:33.571Z,57.35
2019-02-28T21:53:37.791Z,56.63
2019-02-28T21:58:41.973Z,53.68
2019-02-28T22:03:46.219Z,50.73
2019-02-28T22:08:50.482Z,48.10
2019-02-28T22:13:54.738Z,48.35
2019-02-28T22:18:58.946Z,45.65
2019-02-28T22:24:03.300Z,41.68
2019-02-28T22:29:07.827Z,39.73
2019-02-28T22:34:24.719Z,39.70
2019-02-28T22:39:29.008Z,40.17
2019-02-28T22:44:33.318Z,41.33
2019-02-28T22:49:37.525Z,41.10
2019-02-28T22:54:41.845Z,37.00
2019-02-28T22:59:46.107Z,33.55
2019-02-28T23:04:50.313Z,32.73
2019-02-28T23:09:54.584Z,34.88
2019-02-28T23:14:58.841Z,34.05
2019-02-28T23:20:03.055Z,34.38
2019-02-28T23:25:07.279Z,34.05
2019-02-28T23:30:33.972Z,34.67
2019-02-28T23:35:40.919Z,33.53
2019-02-28T23:40:45.270Z,31.80
2019-02-28T23:45:49.466Z,34.20
2019-02-28T23:50:53.724Z,34.53
2019-02-28T23:55:57.947Z,34.33
